createdAt,value
2022-11-19T00:01:12.989Z,6.80
2022-11-19T00:03:42.330Z,7.15
2022-11-19T00:06:14.628Z,6.53
2022-11-19T00:08:43.776Z,6.87
2022-11-19T00:11:18.692Z,6.65
2022-11-19T00:17:27.977Z,5.70
2022-11-19T00:19:58.394Z,6.10
2022-11-19T00:22:27.799Z,6.08
2022-11-19T00:24:57.900Z,5.78
2022-11-19T00:27:26.769Z,5.53
2022-11-19T00:29:55.551Z,5.60
2022-11-19T00:32:24.554Z,5.85
2022-11-19T00:34:53.747Z,5.20
2022-11-19T00:37:22.579Z,5.03
2022-11-19T00:39:53.433Z,5.65
2022-11-19T00:42:22.883Z,4.67
2022-11-19T00:44:52.528Z,4.72
2022-11-19T00:47:21.846Z,4.58
2022-11-19T00:49:52.002Z,5.03
2022-11-19T00:52:55.143Z,4.85
2022-11-19T00:55:24.509Z,5.15
2022-11-19T00:57:54.735Z,4.42
2022-11-19T01:00:23.923Z,4.30
2022-11-19T01:02:54.282Z,4.60
2022-11-19T01:05:23.345Z,4.08
2022-11-19T01:07:54.099Z,4.05
2022-11-19T01:10:23.463Z,4.10
2022-11-19T01:13:10.631Z,4.58
2022-11-19T01:15:54.140Z,3.80
2022-11-19T01:18:22.965Z,4.00
2022-11-19T01:20:53.543Z,3.67
2022-11-19T01:23:23.503Z,3.83
2022-11-19T01:25:53.066Z,3.45
2022-11-19T01:28:23.638Z,3.60
2022-11-19T01:30:53.235Z,3.35
2022-11-19T01:33:24.477Z,3.05
2022-11-19T01:36:02.033Z,3.47
2022-11-19T01:38:33.062Z,3.17
2022-11-19T01:41:02.358Z,2.75
2022-11-19T01:43:50.954Z,3.00
2022-11-19T01:46:24.219Z,2.67
2022-11-19T01:49:04.384Z,3.05
2022-11-19T01:52:00.745Z,3.20
2022-11-19T01:54:40.929Z,2.70
2022-11-19T01:57:14.100Z,2.87
2022-11-19T01:59:44.253Z,3.22
2022-11-19T02:02:13.721Z,2.70
2022-11-19T02:04:43.236Z,2.60
2022-11-19T02:07:13.817Z,2.77
2022-11-19T02:09:44.874Z,3.00
2022-11-19T02:12:28.710Z,2.65
2022-11-19T02:15:13.969Z,2.30
2022-11-19T02:18:21.525Z,2.60
2022-11-19T02:21:37.409Z,2.95
2022-11-19T02:24:53.318Z,2.72
2022-11-19T02:27:51.613Z,2.80
2022-11-19T02:33:06.885Z,2.98
2022-11-19T02:36:00.817Z,2.60
2022-11-19T02:38:53.189Z,2.40
2022-11-19T02:41:38.991Z,2.60
2022-11-19T02:44:47.137Z,2.40
2022-11-19T02:47:25.632Z,2.92
2022-11-19T02:49:59.151Z,2.55
2022-11-19T02:52:28.770Z,2.67
2022-11-19T02:54:58.315Z,2.70
2022-11-19T02:57:27.300Z,2.45
2022-11-19T03:00:23.047Z,2.95
2022-11-19T03:03:19.569Z,2.25
2022-11-19T03:05:54.319Z,2.95
2022-11-19T03:08:24.844Z,2.52
2022-11-19T03:11:16.063Z,2.30
2022-11-19T03:14:16.368Z,2.60
2022-11-19T03:16:51.392Z,2.80
2022-11-19T03:19:40.286Z,2.45
2022-11-19T03:22:27.271Z,3.20
2022-11-19T03:25:24.545Z,2.42
2022-11-19T03:28:06.997Z,2.30
2022-11-19T03:30:38.227Z,2.52
2022-11-19T03:33:33.908Z,2.65
2022-11-19T03:36:09.262Z,2.60
2022-11-19T03:38:46.393Z,2.30
2022-11-19T03:41:17.754Z,2.10
2022-11-19T03:43:52.376Z,2.77
2022-11-19T03:46:22.791Z,2.35
2022-11-19T03:48:53.779Z,2.08
2022-11-19T03:51:28.462Z,2.47
2022-11-19T03:53:57.600Z,2.37
2022-11-19T03:56:27.358Z,2.50
2022-11-19T03:58:58.186Z,2.50
2022-11-19T04:01:27.546Z,2.67
2022-11-19T04:04:16.542Z,2.67
2022-11-19T04:06:47.000Z,2.83
2022-11-19T04:09:18.817Z,2.60
2022-11-19T04:14:21.110Z,2.95
2022-11-19T04:16:52.248Z,3.20
2022-11-19T04:19:21.836Z,3.22
2022-11-19T04:21:50.726Z,3.52
2022-11-19T04:24:21.246Z,4.42
2022-11-19T04:26:51.104Z,4.50
2022-11-19T04:29:21.881Z,3.60
2022-11-19T04:31:51.218Z,2.75
2022-11-19T04:34:20.626Z,2.65
2022-11-19T04:36:50.745Z,2.70
2022-11-19T04:39:20.090Z,2.45
2022-11-19T04:41:50.802Z,2.55
2022-11-19T04:44:23.139Z,2.62
2022-11-19T04:46:53.538Z,3.10
2022-11-19T04:49:22.989Z,3.25
2022-11-19T04:51:52.837Z,3.00
2022-11-19T04:54:22.653Z,5.65
2022-11-19T04:56:51.468Z,5.70
2022-11-19T04:59:21.974Z,6.75
2022-11-19T05:01:53.011Z,8.05
2022-11-19T05:04:23.905Z,8.28
2022-11-19T05:06:53.750Z,10.10
2022-11-19T05:09:22.902Z,8.90
2022-11-19T05:11:52.398Z,8.90
2022-11-19T05:14:23.681Z,9.18
2022-11-19T05:16:52.067Z,8.00
2022-11-19T05:19:22.090Z,8.55
2022-11-19T05:21:52.780Z,7.95
2022-11-19T05:24:21.558Z,7.90
2022-11-19T05:26:51.025Z,8.60
2022-11-19T05:29:21.198Z,7.92
2022-11-19T05:31:51.427Z,8.23
2022-11-19T05:34:21.528Z,7.75
2022-11-19T05:36:50.999Z,7.45
2022-11-19T05:39:22.644Z,8.73
2022-11-19T05:41:52.657Z,8.23
2022-11-19T05:44:21.958Z,7.33
2022-11-19T05:46:51.563Z,8.58
2022-11-19T05:49:20.841Z,8.38
2022-11-19T05:51:49.817Z,8.00
2022-11-19T05:54:19.068Z,6.87
2022-11-19T05:56:49.616Z,8.23
2022-11-19T05:59:20.709Z,7.75
2022-11-19T06:01:50.933Z,6.83
2022-11-19T06:04:20.285Z,6.47
2022-11-19T06:06:51.021Z,6.72
2022-11-19T06:09:21.314Z,6.97
2022-11-19T06:11:51.152Z,7.72
2022-11-19T06:14:22.785Z,8.08
2022-11-19T06:16:53.664Z,7.80
2022-11-19T06:19:23.806Z,7.67
2022-11-19T06:21:53.376Z,7.70
2022-11-19T06:24:22.457Z,8.48
2022-11-19T06:26:52.611Z,7.87
2022-11-19T06:29:21.900Z,7.30
2022-11-19T06:31:52.232Z,9.13
2022-11-19T06:34:22.956Z,7.03
2022-11-19T06:36:53.556Z,8.30
2022-11-19T06:39:23.101Z,7.78
2022-11-19T06:41:54.760Z,8.88
2022-11-19T06:44:24.727Z,8.18
2022-11-19T06:46:54.890Z,7.67
2022-11-19T06:49:26.030Z,7.62
2022-11-19T06:51:55.968Z,9.08
2022-11-19T06:54:25.384Z,7.97
2022-11-19T06:56:54.586Z,9.50
2022-11-19T06:59:24.608Z,8.75
2022-11-19T07:02:20.338Z,9.48
2022-11-19T07:04:47.022Z,8.88
2022-11-19T07:07:17.288Z,8.98
2022-11-19T07:09:47.187Z,8.93
2022-11-19T07:12:17.625Z,8.20
2022-11-19T07:14:48.932Z,9.55
2022-11-19T07:17:19.291Z,10.43
2022-11-19T07:19:49.601Z,9.23
2022-11-19T07:22:20.215Z,10.50
2022-11-19T07:24:49.653Z,9.83
2022-11-19T07:27:21.085Z,9.83
2022-11-19T07:29:50.161Z,10.25
2022-11-19T07:32:20.078Z,9.38
2022-11-19T07:34:49.213Z,9.25
2022-11-19T07:37:22.125Z,10.05
2022-11-19T07:39:52.760Z,10.23
2022-11-19T07:42:41.012Z,8.95
2022-11-19T07:45:10.998Z,9.13
2022-11-19T07:47:42.325Z,9.00
2022-11-19T07:50:11.872Z,9.45
2022-11-19T07:52:41.551Z,8.53
2022-11-19T07:55:11.184Z,9.80
2022-11-19T07:57:40.842Z,10.32
2022-11-19T08:00:12.530Z,9.58
2022-11-19T08:02:42.009Z,10.30
2022-11-19T08:05:13.146Z,10.75
2022-11-19T08:07:43.032Z,10.90
2022-11-19T08:10:14.827Z,11.40
2022-11-19T08:12:46.857Z,13.10
2022-11-19T08:15:17.254Z,12.78
2022-11-19T08:18:07.246Z,13.25
2022-11-19T08:20:38.463Z,12.43
2022-11-19T08:23:09.154Z,13.78
2022-11-19T08:25:41.765Z,14.65
2022-11-19T08:28:12.295Z,12.88
2022-11-19T08:30:42.182Z,12.73
2022-11-19T08:33:12.433Z,12.63
2022-11-19T08:35:44.177Z,13.32
2022-11-19T08:38:14.033Z,14.25
2022-11-19T08:40:44.097Z,14.25
2022-11-19T08:43:14.538Z,14.80
2022-11-19T08:45:52.488Z,15.00
2022-11-19T08:48:22.347Z,14.73
2022-11-19T08:50:52.894Z,15.10
2022-11-19T08:53:22.013Z,15.90
2022-11-19T08:55:52.005Z,16.20
2022-11-19T08:58:21.245Z,15.15
2022-11-19T09:00:51.258Z,14.63
2022-11-19T09:03:20.148Z,15.80
2022-11-19T09:05:49.015Z,15.38
2022-11-19T09:08:18.294Z,15.90
2022-11-19T09:10:47.618Z,16.62
2022-11-19T09:13:18.270Z,17.02
2022-11-19T09:15:51.182Z,18.12
2022-11-19T09:18:20.614Z,16.52
2022-11-19T09:20:55.558Z,22.22
2022-11-19T09:23:26.006Z,17.05
2022-11-19T09:25:58.612Z,17.15
2022-11-19T09:28:27.983Z,17.98
2022-11-19T09:31:06.413Z,19.10
2022-11-19T09:33:38.326Z,19.98
2022-11-19T09:36:09.351Z,18.87
2022-11-19T09:38:40.644Z,20.43
2022-11-19T09:41:50.234Z,17.52
2022-11-19T09:44:30.955Z,17.85
2022-11-19T09:47:27.890Z,18.65
2022-11-19T09:50:18.761Z,17.48
2022-11-19T09:52:57.204Z,18.92
2022-11-19T09:55:41.292Z,20.05
2022-11-19T09:58:33.280Z,19.48
2022-11-19T10:01:02.551Z,18.65
2022-11-19T10:03:33.880Z,17.17
2022-11-19T10:06:27.601Z,18.02
2022-11-19T10:09:42.298Z,20.00
2022-11-19T10:12:56.729Z,17.32
2022-11-19T10:15:37.948Z,17.62
2022-11-19T10:18:21.594Z,16.25
2022-11-19T10:21:14.395Z,14.78
2022-11-19T10:24:15.289Z,13.62
2022-11-19T10:26:49.547Z,14.03
2022-11-19T10:29:22.226Z,15.40
2022-11-19T10:31:52.869Z,18.32
2022-11-19T10:34:31.554Z,21.60
2022-11-19T10:37:14.155Z,24.50
2022-11-19T10:39:57.947Z,20.15
2022-11-19T10:42:38.988Z,18.42
2022-11-19T10:45:27.333Z,16.97
2022-11-19T10:48:13.496Z,16.65
2022-11-19T10:50:42.883Z,16.07
2022-11-19T10:53:36.257Z,16.48
2022-11-19T10:56:13.684Z,16.37
2022-11-19T10:58:56.991Z,16.95
2022-11-19T11:01:31.894Z,18.52
2022-11-19T11:04:23.266Z,19.30
2022-11-19T11:07:03.052Z,18.02
2022-11-19T11:09:44.893Z,18.80
2022-11-19T11:12:39.144Z,16.93
2022-11-19T11:15:16.363Z,16.23
2022-11-19T11:17:48.094Z,15.38
2022-11-19T11:20:22.896Z,15.65
2022-11-19T11:23:08.391Z,14.70
2022-11-19T11:25:38.800Z,16.37
2022-11-19T11:28:16.507Z,16.17
2022-11-19T11:30:57.793Z,14.65
2022-11-19T11:33:35.143Z,16.48
2022-11-19T11:42:03.372Z,15.05
2022-11-19T11:44:09.993Z,15.10
2022-11-19T11:46:53.353Z,16.60
2022-11-19T11:49:39.763Z,14.95
2022-11-19T11:52:28.243Z,16.97
2022-11-19T11:55:04.276Z,15.25
2022-11-19T11:57:39.587Z,16.07
2022-11-19T12:00:36.729Z,17.02
2022-11-19T12:03:14.178Z,14.90
2022-11-19T12:06:07.841Z,16.05
2022-11-19T12:08:53.878Z,16.50
2022-11-19T12:14:12.305Z,15.95
2022-11-19T12:16:50.644Z,17.20
2022-11-19T12:22:07.521Z,15.80
2022-11-19T12:25:00.956Z,14.93
2022-11-19T12:27:44.705Z,15.15
2022-11-19T12:30:23.897Z,13.55
2022-11-19T12:33:20.524Z,14.80
2022-11-19T12:36:13.481Z,13.75
2022-11-19T12:39:09.542Z,14.65
2022-11-19T12:42:03.129Z,13.15
2022-11-19T12:44:56.583Z,13.30
2022-11-19T12:47:45.686Z,12.70
2022-11-19T12:50:31.751Z,13.30
2022-11-19T12:53:34.448Z,13.88
2022-11-19T12:56:48.382Z,13.70
2022-11-19T12:59:29.236Z,14.63
2022-11-19T13:01:58.546Z,13.95
2022-11-19T13:04:40.958Z,14.90
2022-11-19T13:07:23.562Z,16.00
2022-11-19T13:10:18.549Z,14.63
2022-11-19T13:12:54.876Z,13.55
2022-11-19T13:15:32.290Z,14.85
2022-11-19T13:18:02.639Z,14.70
2022-11-19T13:20:49.061Z,15.25
2022-11-19T13:23:40.633Z,15.50
2022-11-19T13:26:16.537Z,13.45
2022-11-19T13:29:15.190Z,14.65
2022-11-19T13:31:49.351Z,12.18
2022-11-19T13:34:26.521Z,11.78
2022-11-19T13:37:06.613Z,13.65
2022-11-19T13:39:43.842Z,13.75
2022-11-19T13:42:31.538Z,13.08
2022-11-19T13:45:00.399Z,12.50
2022-11-19T13:47:58.291Z,12.45
2022-11-19T13:50:36.350Z,11.53
2022-11-19T13:53:16.903Z,13.70
2022-11-19T13:55:46.327Z,12.75
2022-11-19T13:58:23.018Z,13.70
2022-11-19T14:01:07.926Z,12.95
2022-11-19T14:04:13.116Z,11.75
2022-11-19T14:07:03.645Z,12.75
2022-11-19T14:10:02.930Z,14.05
2022-11-19T14:15:58.500Z,13.20
2022-11-19T14:18:54.368Z,13.75
2022-11-19T14:21:51.252Z,12.15
2022-11-19T14:24:51.154Z,13.15
2022-11-19T14:27:26.168Z,12.50
2022-11-19T14:30:04.346Z,12.93
2022-11-19T14:32:47.046Z,14.60
2022-11-19T14:35:25.095Z,15.68
2022-11-19T14:37:59.720Z,14.15
2022-11-19T14:40:30.941Z,13.35
2022-11-19T14:43:25.994Z,14.53
2022-11-19T14:46:12.290Z,15.85
2022-11-19T14:48:49.103Z,15.00
2022-11-19T14:51:36.166Z,13.78
2022-11-19T14:54:19.311Z,14.97
2022-11-19T14:57:01.276Z,13.68
2022-11-19T14:59:35.074Z,12.15
2022-11-19T15:02:16.015Z,12.88
2022-11-19T15:04:55.668Z,12.35
2022-11-19T15:07:43.379Z,13.32
2022-11-19T15:12:49.233Z,11.68
2022-11-19T15:15:41.558Z,11.85
2022-11-19T15:18:44.406Z,13.60
2022-11-19T15:21:54.734Z,12.85
2022-11-19T15:24:52.018Z,12.70
2022-11-19T15:27:58.827Z,13.98
2022-11-19T15:30:44.805Z,12.20
2022-11-19T15:33:19.050Z,14.30
2022-11-19T15:36:28.712Z,14.10
2022-11-19T15:39:33.245Z,14.35
2022-11-19T15:42:04.634Z,13.13
2022-11-19T15:44:42.997Z,13.50
2022-11-19T15:47:24.881Z,13.18
2022-11-19T15:49:55.191Z,13.30
2022-11-19T15:52:31.772Z,15.43
2022-11-19T15:55:20.457Z,13.50
2022-11-19T15:57:53.689Z,15.32
2022-11-19T16:00:22.072Z,16.55
2022-11-19T16:02:51.957Z,14.25
2022-11-19T19:05:02.912Z,16.25
2022-11-19T19:07:33.839Z,17.15
2022-11-19T19:10:06.293Z,16.23
2022-11-19T19:12:36.216Z,15.70
2022-11-19T19:15:06.716Z,14.78
2022-11-19T19:17:37.167Z,14.18
2022-11-19T19:20:07.570Z,15.80
2022-11-19T19:22:37.796Z,18.42
2022-11-19T19:25:09.029Z,16.20
2022-11-19T19:27:38.033Z,14.70
2022-11-19T19:30:09.486Z,13.10
2022-11-19T19:32:39.462Z,15.72
2022-11-19T19:35:10.196Z,13.98
2022-11-19T19:37:42.013Z,15.50
2022-11-19T19:40:13.323Z,15.03
2022-11-19T19:42:42.507Z,15.45
2022-11-19T19:45:12.278Z,14.65
2022-11-19T19:47:42.565Z,14.83
2022-11-19T19:50:13.893Z,17.07
2022-11-19T19:52:44.138Z,14.70
2022-11-19T19:55:14.531Z,14.43
2022-11-19T19:57:45.946Z,13.53
2022-11-19T20:00:16.998Z,13.93
2022-11-19T20:02:50.640Z,13.60
2022-11-19T20:05:22.223Z,15.58
2022-11-19T20:07:52.244Z,14.13
2022-11-19T20:10:22.295Z,13.45
2022-11-19T20:13:11.136Z,15.58
2022-11-19T20:15:41.488Z,13.18
2022-11-19T20:18:11.502Z,14.70
2022-11-19T20:20:40.991Z,15.23
2022-11-19T20:23:10.625Z,14.45
2022-11-19T20:25:39.838Z,13.38
2022-11-19T20:28:11.175Z,13.58
2022-11-19T20:30:40.429Z,13.88
2022-11-19T20:33:11.121Z,14.20
2022-11-19T20:35:42.305Z,14.47
2022-11-19T20:38:12.397Z,14.15
2022-11-19T20:40:43.266Z,14.60
2022-11-19T20:43:30.719Z,14.53
2022-11-19T20:46:09.525Z,15.20
2022-11-19T20:48:39.503Z,16.90
2022-11-19T20:51:09.277Z,15.88
2022-11-19T20:53:40.548Z,16.65
2022-11-19T20:56:09.827Z,15.25
2022-11-19T20:58:40.351Z,16.42
2022-11-19T21:01:10.476Z,17.37
2022-11-19T21:03:40.415Z,16.10
2022-11-19T21:06:13.097Z,15.98
2022-11-19T21:08:45.042Z,13.48
2022-11-19T21:11:15.464Z,14.70
2022-11-19T21:13:44.388Z,15.68
2022-11-19T21:16:17.615Z,16.57
2022-11-19T21:18:48.080Z,14.25
2022-11-19T21:21:19.312Z,13.40
2022-11-19T21:23:49.896Z,14.20
2022-11-19T21:26:23.337Z,15.72
2022-11-19T21:28:56.266Z,13.18
2022-11-19T21:31:45.140Z,12.07
2022-11-19T21:36:48.926Z,13.35
2022-11-19T21:39:19.256Z,11.78
2022-11-19T21:41:51.389Z,10.40
2022-11-19T21:44:22.139Z,12.80
2022-11-19T21:46:52.499Z,11.93
2022-11-19T21:49:23.315Z,11.80
2022-11-19T21:51:55.451Z,12.63
2022-11-19T21:54:25.888Z,11.85
2022-11-19T21:56:55.784Z,9.40
2022-11-19T21:59:27.089Z,9.68
2022-11-19T22:01:57.570Z,11.48
2022-11-19T22:04:28.705Z,10.45
2022-11-19T22:07:00.306Z,10.15
2022-11-19T22:09:29.817Z,10.23
2022-11-19T22:12:01.508Z,11.03
2022-11-19T22:14:32.153Z,11.57
2022-11-19T22:17:01.770Z,9.85
2022-11-19T22:19:31.600Z,11.55
2022-11-19T22:22:01.789Z,10.55
2022-11-19T22:24:31.204Z,9.73
2022-11-19T22:27:00.496Z,10.00
2022-11-19T22:29:31.387Z,9.33
2022-11-19T22:32:01.092Z,10.35
2022-11-19T22:34:30.212Z,10.50
2022-11-19T22:36:59.429Z,9.10
2022-11-19T22:39:34.763Z,9.10
2022-11-19T22:42:11.640Z,11.08
2022-11-19T22:44:41.486Z,11.93
2022-11-19T22:47:11.070Z,12.07
2022-11-19T22:49:40.784Z,10.80
2022-11-19T22:52:10.263Z,13.72
2022-11-19T22:54:41.836Z,11.90
2022-11-19T22:57:11.135Z,11.05
2022-11-19T22:59:41.398Z,9.25
2022-11-19T23:02:10.547Z,8.80
2022-11-19T23:04:41.451Z,8.93
2022-11-19T23:07:10.349Z,8.78
2022-11-19T23:09:39.982Z,9.05
2022-11-19T23:12:28.358Z,8.48
2022-11-19T23:14:58.815Z,8.10
2022-11-19T23:17:29.349Z,8.38
2022-11-19T23:20:04.231Z,8.93
2022-11-19T23:22:29.253Z,8.35
2022-11-19T23:24:59.383Z,9.10
2022-11-19T23:27:28.348Z,7.92
2022-11-19T23:29:57.863Z,14.50
2022-11-19T23:32:26.884Z,13.35
2022-11-19T23:34:55.896Z,14.25
2022-11-19T23:37:24.951Z,13.85
2022-11-19T23:39:54.237Z,14.95
2022-11-19T23:42:23.211Z,13.90
2022-11-19T23:44:52.603Z,14.03
2022-11-19T23:47:21.921Z,14.43
2022-11-19T23:49:51.961Z,14.05
2022-11-19T23:52:20.941Z,13.88
2022-11-19T23:54:51.000Z,13.28
2022-11-19T23:57:20.142Z,13.30
2022-11-19T23:59:49.123Z,14.28
